createdAt,value
2018-11-21T00:03:27.899Z,16.43
2018-11-21T00:08:31.389Z,18.10
2018-11-21T00:13:34.906Z,16.83
2018-11-21T00:18:38.458Z,16.07
2018-11-21T00:23:41.949Z,16.30
2018-11-21T00:28:45.463Z,15.93
2018-11-21T00:33:50.579Z,16.07
2018-11-21T00:38:54.084Z,17.07
2018-11-21T00:43:57.587Z,15.77
2018-11-21T00:49:01.045Z,16.10
2018-11-21T00:54:04.664Z,15.97
2018-11-21T00:59:08.316Z,16.53
2018-11-21T01:04:11.837Z,15.50
2018-11-21T01:09:15.761Z,15.30
2018-11-21T01:14:19.268Z,14.50
2018-11-21T01:19:22.849Z,15.50
2018-11-21T01:24:26.350Z,16.37
2018-11-21T01:29:29.831Z,15.97
2018-11-21T01:34:33.345Z,16.00
2018-11-21T01:39:36.847Z,15.13
2018-11-21T01:44:40.345Z,15.93
2018-11-21T01:49:43.876Z,17.50
2018-11-21T01:54:47.356Z,16.87
2018-11-21T01:59:52.244Z,16.23
2018-11-21T02:04:55.753Z,16.23
2018-11-21T02:09:59.251Z,15.80
2018-11-21T02:15:02.720Z,16.20
2018-11-21T02:20:07.704Z,16.10
2018-11-21T02:25:11.218Z,15.57
2018-11-21T02:30:14.732Z,15.33
2018-11-21T02:35:25.674Z,17.50
2018-11-21T02:40:29.216Z,17.33
2018-11-21T02:45:32.774Z,15.47
2018-11-21T02:50:36.286Z,15.20
2018-11-21T02:55:39.766Z,15.83
2018-11-21T03:00:43.292Z,16.13
2018-11-21T03:05:46.787Z,15.77
2018-11-21T03:10:50.323Z,16.40
2018-11-21T03:15:53.831Z,15.33
2018-11-21T03:20:57.386Z,17.27
2018-11-21T03:26:02.494Z,15.63
2018-11-21T03:31:06.196Z,16.80
2018-11-21T03:36:09.741Z,16.93
2018-11-21T03:41:13.532Z,17.00
2018-11-21T03:46:16.990Z,17.00
2018-11-21T03:51:20.465Z,17.07
2018-11-21T03:56:23.953Z,17.67
2018-11-21T04:01:27.456Z,19.30
2018-11-21T04:06:30.952Z,18.83
2018-11-21T04:11:34.444Z,19.70
2018-11-21T04:16:37.934Z,20.00
2018-11-21T04:21:41.399Z,20.23
2018-11-21T04:26:44.942Z,20.80
2018-11-21T04:31:48.444Z,20.90
2018-11-21T04:36:51.941Z,20.37
2018-11-21T04:41:55.443Z,20.90
2018-11-21T04:46:58.954Z,18.50
2018-11-21T04:52:02.547Z,20.37
2018-11-21T04:57:06.729Z,19.63
2018-11-21T05:02:11.474Z,19.60
2018-11-21T05:07:15.433Z,18.20
2018-11-21T05:12:21.132Z,18.17
2018-11-21T05:17:24.857Z,19.10
2018-11-21T05:22:28.348Z,17.63
2018-11-21T05:27:31.839Z,17.70
2018-11-21T05:32:35.341Z,17.93
2018-11-21T05:37:38.866Z,18.20
2018-11-21T05:42:42.397Z,17.20
2018-11-21T05:47:45.885Z,17.97
2018-11-21T05:52:49.416Z,16.90
2018-11-21T05:57:52.935Z,17.80
2018-11-21T06:02:56.424Z,17.30
2018-11-21T06:07:59.941Z,16.53
2018-11-21T06:13:03.430Z,17.17
2018-11-21T06:18:06.919Z,16.27
2018-11-21T06:23:10.437Z,16.67
2018-11-21T06:28:14.128Z,17.10
2018-11-21T06:33:17.639Z,16.87
2018-11-21T06:38:21.202Z,17.20
2018-11-21T06:43:24.771Z,15.77
2018-11-21T06:48:28.276Z,17.00
2018-11-21T06:53:31.731Z,17.83
2018-11-21T06:58:35.324Z,17.00
2018-11-21T07:03:38.831Z,16.30
2018-11-21T07:08:42.319Z,17.43
2018-11-21T07:13:45.803Z,16.50
2018-11-21T07:18:51.615Z,15.90
2018-11-21T07:23:55.129Z,15.50
2018-11-21T07:28:58.722Z,15.87
2018-11-21T07:34:02.435Z,14.97
2018-11-21T07:39:08.809Z,14.60
2018-11-21T07:44:13.512Z,14.13
2018-11-21T07:49:17.011Z,16.73
2018-11-21T07:54:20.586Z,14.70
2018-11-21T07:59:24.201Z,14.03
2018-11-21T08:04:40.391Z,14.43
2018-11-21T08:10:12.520Z,15.00
2018-11-21T08:15:37.912Z,15.53
2018-11-21T08:21:03.478Z,15.67
2018-11-21T08:26:26.695Z,13.80
2018-11-21T08:31:30.414Z,16.10
2018-11-21T08:36:36.660Z,14.30
2018-11-21T08:41:41.773Z,16.30
2018-11-21T08:46:45.353Z,14.97
2018-11-21T08:51:48.909Z,14.83
2018-11-21T08:56:55.936Z,15.20
2018-11-21T09:02:04.010Z,15.90
2018-11-21T09:07:07.508Z,14.87
2018-11-21T09:12:11.139Z,14.37
2018-11-21T09:17:14.561Z,14.57
2018-11-21T09:22:18.027Z,14.70
2018-11-21T09:27:21.630Z,15.03
2018-11-21T09:32:29.385Z,14.93
2018-11-21T09:37:28.628Z,15.37
2018-11-21T09:42:32.172Z,14.37
2018-11-21T09:47:35.700Z,16.37
2018-11-21T09:52:39.283Z,16.03
2018-11-21T09:57:42.790Z,15.73
2018-11-21T10:03:11.941Z,15.53
2018-11-21T10:08:32.112Z,15.17
2018-11-21T10:13:35.622Z,15.40
2018-11-21T10:18:40.345Z,15.30
2018-11-21T10:23:45.259Z,16.47
2018-11-21T10:28:48.029Z,16.13
2018-11-21T10:33:51.606Z,16.37
2018-11-21T10:38:55.145Z,15.27
2018-11-21T10:43:58.688Z,17.23
2018-11-21T10:49:05.454Z,16.63
2018-11-21T10:54:09.036Z,16.53
2018-11-21T10:59:12.797Z,17.30
2018-11-21T11:04:35.779Z,15.60
2018-11-21T11:09:56.746Z,16.30
2018-11-21T11:15:19.274Z,15.53
2018-11-21T11:20:49.824Z,15.33
2018-11-21T11:26:12.161Z,17.20
2018-11-21T11:32:35.514Z,15.70
2018-11-21T11:38:00.387Z,16.07
2018-11-21T11:43:30.290Z,14.97
2018-11-21T11:48:49.050Z,15.57
2018-11-21T11:54:05.593Z,15.63
2018-11-21T11:59:26.805Z,15.53
2018-11-21T12:04:50.472Z,15.43
2018-11-21T12:10:12.767Z,15.83
2018-11-21T12:15:52.510Z,15.43
2018-11-21T12:21:15.469Z,15.70
2018-11-21T12:26:43.745Z,15.23
2018-11-21T12:32:09.980Z,16.20
2018-11-21T12:37:33.961Z,15.90
2018-11-21T12:43:16.268Z,15.13
2018-11-21T12:48:48.866Z,15.07
2018-11-21T12:54:15.915Z,13.40
2018-11-21T12:59:38.271Z,15.90
2018-11-21T13:05:17.217Z,12.57
2018-11-21T13:10:40.538Z,14.33
2018-11-21T13:16:02.825Z,14.27
2018-11-21T13:21:26.211Z,13.83
2018-11-21T13:26:55.864Z,14.47
2018-11-21T13:38:00.269Z,15.37
2018-11-21T13:43:43.578Z,15.70
2018-11-21T13:49:06.233Z,14.47
2018-11-21T13:54:48.808Z,13.33
2018-11-21T14:00:12.845Z,14.83
2018-11-21T14:05:36.782Z,14.57
2018-11-21T14:11:00.664Z,14.70
2018-11-21T14:21:56.024Z,14.43
2018-11-21T14:27:19.375Z,14.60
2018-11-21T14:32:24.484Z,14.20
2018-11-21T14:37:48.385Z,14.80
2018-11-21T14:42:54.506Z,15.00
2018-11-21T14:48:01.226Z,14.67
2018-11-21T14:53:08.853Z,14.10
2018-11-21T14:58:14.749Z,15.17
2018-11-21T15:03:19.877Z,15.07
2018-11-21T15:08:27.677Z,14.27
2018-11-21T15:13:35.597Z,13.90
2018-11-21T15:18:41.525Z,13.93
2018-11-21T15:23:46.599Z,14.47
2018-11-21T15:28:52.504Z,16.13
2018-11-21T15:33:59.135Z,15.17
2018-11-21T15:39:06.427Z,16.70
2018-11-21T15:44:14.364Z,20.93
2018-11-21T15:49:20.958Z,17.67
2018-11-21T15:54:25.991Z,18.23
2018-11-21T15:59:32.232Z,15.77
2018-11-21T16:04:44.324Z,16.13
2018-11-21T16:09:49.107Z,16.07
2018-11-21T16:14:54.347Z,16.77
2018-11-21T16:20:11.109Z,14.73
2018-11-21T16:25:18.536Z,16.20
2018-11-21T16:30:25.022Z,15.30
2018-11-21T16:35:30.082Z,15.67
2018-11-21T16:40:38.111Z,15.90
2018-11-21T16:45:45.525Z,16.30
2018-11-21T16:50:50.571Z,15.83
2018-11-21T16:55:58.533Z,15.83
2018-11-21T17:01:02.649Z,14.77
2018-11-21T17:06:08.782Z,14.67
2018-11-21T17:11:15.413Z,14.87
2018-11-21T17:16:21.351Z,14.13
2018-11-21T17:21:29.191Z,16.43
2018-11-21T17:26:38.802Z,19.83
2018-11-21T17:31:44.524Z,16.70
2018-11-21T17:36:50.886Z,16.63
2018-11-21T17:41:56.841Z,15.63
2018-11-21T17:47:10.981Z,15.90
2018-11-21T17:52:17.885Z,15.80
2018-11-21T17:57:28.001Z,15.40
2018-11-21T18:02:30.872Z,15.67
2018-11-21T18:07:36.170Z,14.00
2018-11-21T18:12:42.712Z,14.87
2018-11-21T18:17:49.009Z,15.83
2018-11-21T18:23:04.067Z,14.70
2018-11-21T18:28:11.499Z,16.20
2018-11-21T18:33:18.665Z,16.00
2018-11-21T18:38:23.723Z,14.30
2018-11-21T18:43:29.626Z,14.90
2018-11-21T18:48:34.711Z,15.67
2018-11-21T18:53:40.603Z,15.77
2018-11-21T18:59:10.426Z,15.40
2018-11-21T19:04:15.592Z,15.67
2018-11-21T19:09:20.713Z,15.50
2018-11-21T19:14:27.748Z,14.67
2018-11-21T19:19:33.686Z,15.93
2018-11-21T19:24:38.716Z,16.83
2018-11-21T19:29:47.966Z,15.60
2018-11-21T19:34:56.831Z,15.50
2018-11-21T19:40:03.640Z,16.23
2018-11-21T19:45:28.442Z,15.83
2018-11-21T19:50:53.196Z,14.13
2018-11-21T19:55:58.355Z,15.00
2018-11-21T20:01:03.526Z,14.27
2018-11-21T20:11:38.827Z,15.93
2018-11-21T20:17:21.657Z,15.20
2018-11-21T20:22:46.045Z,15.70
2018-11-21T20:27:50.963Z,14.90
2018-11-21T20:32:59.634Z,14.00
2018-11-21T20:38:05.595Z,15.30
2018-11-21T20:43:11.466Z,15.00
2018-11-21T20:48:19.721Z,15.23
2018-11-21T20:53:24.885Z,14.27
2018-11-21T20:58:30.828Z,16.90
2018-11-21T21:03:35.982Z,14.87
2018-11-21T21:08:43.008Z,15.27
2018-11-21T21:13:49.402Z,15.93
2018-11-21T21:18:54.152Z,15.37
2018-11-21T21:24:02.355Z,14.17
2018-11-21T21:29:07.794Z,14.50
2018-11-21T21:34:12.921Z,14.50
2018-11-21T21:39:18.029Z,14.43
2018-11-21T21:44:26.959Z,15.77
2018-11-21T21:49:34.410Z,15.30
2018-11-21T21:54:40.225Z,15.40
2018-11-21T21:59:45.264Z,15.07
2018-11-21T22:04:51.078Z,16.20
2018-11-21T22:09:56.195Z,14.80
2018-11-21T22:15:01.390Z,15.77
2018-11-21T22:20:08.725Z,15.30
2018-11-21T22:25:14.584Z,15.20
2018-11-21T22:30:19.707Z,24.37
2018-11-21T22:35:29.441Z,22.30
2018-11-21T22:40:36.466Z,17.33
2018-11-21T22:45:41.478Z,16.80
2018-11-21T22:50:46.504Z,17.60
2018-11-21T22:55:51.676Z,16.43
2018-11-21T23:00:57.661Z,16.90
2018-11-21T23:06:02.770Z,16.40
2018-11-21T23:11:07.810Z,15.77
2018-11-21T23:16:14.923Z,15.30
2018-11-21T23:21:20.447Z,15.67
2018-11-21T23:26:27.609Z,15.63
2018-11-21T23:31:33.564Z,14.33
2018-11-21T23:36:38.609Z,16.67
2018-11-21T23:41:44.078Z,16.13
2018-11-21T23:46:50.645Z,17.30
2018-11-21T23:51:55.137Z,16.60
2018-11-21T23:57:15.882Z,16.40
